sensor_id;sensor_type;location;lat;lon;timestamp;temperature;humidity
9383;DHT22;4731;49.708;10.816;2023-06-10T00:01:43;15.40;99.90
9383;DHT22;4731;49.708;10.816;2023-06-10T00:04:12;15.40;99.90
9383;DHT22;4731;49.708;10.816;2023-06-10T00:06:40;14.90;99.90
9383;DHT22;4731;49.708;10.816;2023-06-10T00:09:07;15.30;99.90
9383;DHT22;4731;49.708;10.816;2023-06-10T00:11:36;15.30;99.90
9383;DHT22;4731;49.708;10.816;2023-06-10T00:14:03;15.30;99.90
9383;DHT22;4731;49.708;10.816;2023-06-10T00:16:30;15.30;99.90
9383;DHT22;4731;49.708;10.816;2023-06-10T00:18:57;15.20;99.90
9383;DHT22;4731;49.708;10.816;2023-06-10T00:21:26;15.30;99.90
9383;DHT22;4731;49.708;10.816;2023-06-10T00:23:54;15.20;99.90
9383;DHT22;4731;49.708;10.816;2023-06-10T00:26:21;15.10;99.90
9383;DHT22;4731;49.708;10.816;2023-06-10T00:28:48;15.10;99.90
9383;DHT22;4731;49.708;10.816;2023-06-10T00:31:15;15.10;99.90
9383;DHT22;4731;49.708;10.816;2023-06-10T00:33:41;15.10;99.90
9383;DHT22;4731;49.708;10.816;2023-06-10T00:36:08;14.90;99.90
9383;DHT22;4731;49.708;10.816;2023-06-10T00:38:35;14.90;99.90
9383;DHT22;4731;49.708;10.816;2023-06-10T00:41:03;14.90;99.90
9383;DHT22;4731;49.708;10.816;2023-06-10T00:43:30;14.90;99.90
9383;DHT22;4731;49.708;10.816;2023-06-10T00:45:57;14.90;99.90
9383;DHT22;4731;49.708;10.816;2023-06-10T00:48:24;14.70;99.90
9383;DHT22;4731;49.708;10.816;2023-06-10T00:50:51;14.70;99.90
9383;DHT22;4731;49.708;10.816;2023-06-10T00:53:18;14.70;99.90
9383;DHT22;4731;49.708;10.816;2023-06-10T00:55:44;14.80;99.90
9383;DHT22;4731;49.708;10.816;2023-06-10T00:58:13;14.80;99.90
9383;DHT22;4731;49.708;10.816;2023-06-10T01:00:40;14.70;99.90
9383;DHT22;4731;49.708;10.816;2023-06-10T01:03:06;14.70;99.90
9383;DHT22;4731;49.708;10.816;2023-06-10T01:05:34;14.70;99.90
9383;DHT22;4731;49.708;10.816;2023-06-10T01:08:06;14.70;99.90
9383;DHT22;4731;49.708;10.816;2023-06-10T01:10:38;14.70;99.90
9383;DHT22;4731;49.708;10.816;2023-06-10T01:13:07;14.60;99.90
9383;DHT22;4731;49.708;10.816;2023-06-10T01:15:39;14.50;99.90
9383;DHT22;4731;49.708;10.816;2023-06-10T01:18:07;14.50;99.90
9383;DHT22;4731;49.708;10.816;2023-06-10T01:20:35;14.50;99.90
9383;DHT22;4731;49.708;10.816;2023-06-10T01:23:07;14.40;99.90
9383;DHT22;4731;49.708;10.816;2023-06-10T01:25:37;14.30;99.90
9383;DHT22;4731;49.708;10.816;2023-06-10T01:28:09;14.30;99.90
9383;DHT22;4731;49.708;10.816;2023-06-10T01:30:46;14.30;99.90
9383;DHT22;4731;49.708;10.816;2023-06-10T01:33:17;14.20;99.90
9383;DHT22;4731;49.708;10.816;2023-06-10T01:35:47;14.20;99.90
9383;DHT22;4731;49.708;10.816;2023-06-10T01:38:15;14.20;99.90
9383;DHT22;4731;49.708;10.816;2023-06-10T01:40:44;14.10;99.90
9383;DHT22;4731;49.708;10.816;2023-06-10T01:43:12;14.10;99.90
9383;DHT22;4731;49.708;10.816;2023-06-10T01:45:39;14.10;99.90
9383;DHT22;4731;49.708;10.816;2023-06-10T01:48:06;14.10;99.90
9383;DHT22;4731;49.708;10.816;2023-06-10T01:50:32;14.00;99.90
9383;DHT22;4731;49.708;10.816;2023-06-10T01:52:59;14.10;99.90
9383;DHT22;4731;49.708;10.816;2023-06-10T01:55:27;14.10;99.90
9383;DHT22;4731;49.708;10.816;2023-06-10T01:57:54;14.10;99.90
9383;DHT22;4731;49.708;10.816;2023-06-10T02:00:21;14.10;99.90
9383;DHT22;4731;49.708;10.816;2023-06-10T02:02:47;14.00;99.90
9383;DHT22;4731;49.708;10.816;2023-06-10T02:05:14;14.00;99.90
9383;DHT22;4731;49.708;10.816;2023-06-10T02:07:41;14.10;99.90
9383;DHT22;4731;49.708;10.816;2023-06-10T02:10:08;13.90;99.90
9383;DHT22;4731;49.708;10.816;2023-06-10T02:12:36;14.00;99.90
9383;DHT22;4731;49.708;10.816;2023-06-10T02:15:03;14.00;99.90
9383;DHT22;4731;49.708;10.816;2023-06-10T02:17:30;14.00;99.90
9383;DHT22;4731;49.708;10.816;2023-06-10T02:19:57;13.90;99.90
9383;DHT22;4731;49.708;10.816;2023-06-10T02:22:25;13.90;99.90
9383;DHT22;4731;49.708;10.816;2023-06-10T02:24:52;13.90;99.90
9383;DHT22;4731;49.708;10.816;2023-06-10T02:27:19;13.80;99.90
9383;DHT22;4731;49.708;10.816;2023-06-10T02:29:47;13.70;99.90
9383;DHT22;4731;49.708;10.816;2023-06-10T02:32:14;13.70;99.90
9383;DHT22;4731;49.708;10.816;2023-06-10T02:34:41;13.60;99.90
9383;DHT22;4731;49.708;10.816;2023-06-10T02:37:08;13.70;99.90
9383;DHT22;4731;49.708;10.816;2023-06-10T02:39:35;13.60;99.90
9383;DHT22;4731;49.708;10.816;2023-06-10T02:42:02;13.60;99.90
9383;DHT22;4731;49.708;10.816;2023-06-10T02:44:29;13.60;99.90
9383;DHT22;4731;49.708;10.816;2023-06-10T02:46:56;13.60;99.90
9383;DHT22;4731;49.708;10.816;2023-06-10T02:49:23;13.60;99.90
9383;DHT22;4731;49.708;10.816;2023-06-10T02:51:53;13.60;99.90
9383;DHT22;4731;49.708;10.816;2023-06-10T02:54:20;13.50;99.90
9383;DHT22;4731;49.708;10.816;2023-06-10T02:56:48;13.50;99.90
9383;DHT22;4731;49.708;10.816;2023-06-10T02:59:14;14.30;99.90
9383;DHT22;4731;49.708;10.816;2023-06-10T03:01:41;13.50;99.90
9383;DHT22;4731;49.708;10.816;2023-06-10T03:04:10;13.50;99.90
9383;DHT22;4731;49.708;10.816;2023-06-10T03:06:39;13.50;99.90
9383;DHT22;4731;49.708;10.816;2023-06-10T03:09:06;13.50;99.90
9383;DHT22;4731;49.708;10.816;2023-06-10T03:11:33;13.50;99.90
9383;DHT22;4731;49.708;10.816;2023-06-10T03:14:00;13.50;99.90
9383;DHT22;4731;49.708;10.816;2023-06-10T03:16:27;13.40;99.90
9383;DHT22;4731;49.708;10.816;2023-06-10T03:18:55;14.00;99.90
9383;DHT22;4731;49.708;10.816;2023-06-10T03:21:24;13.40;99.90
9383;DHT22;4731;49.708;10.816;2023-06-10T03:23:51;13.40;99.90
9383;DHT22;4731;49.708;10.816;2023-06-10T03:26:17;13.20;99.90
9383;DHT22;4731;49.708;10.816;2023-06-10T03:28:47;13.20;99.90
9383;DHT22;4731;49.708;10.816;2023-06-10T03:31:13;13.10;99.90
9383;DHT22;4731;49.708;10.816;2023-06-10T03:33:42;13.10;99.90
9383;DHT22;4731;49.708;10.816;2023-06-10T03:36:08;13.20;99.90
9383;DHT22;4731;49.708;10.816;2023-06-10T03:38:36;13.20;99.90
9383;DHT22;4731;49.708;10.816;2023-06-10T03:41:03;13.30;99.90
9383;DHT22;4731;49.708;10.816;2023-06-10T03:43:30;13.20;99.90
9383;DHT22;4731;49.708;10.816;2023-06-10T03:45:57;13.20;99.90
9383;DHT22;4731;49.708;10.816;2023-06-10T03:48:24;13.20;99.90
9383;DHT22;4731;49.708;10.816;2023-06-10T03:50:50;13.20;99.90
9383;DHT22;4731;49.708;10.816;2023-06-10T03:53:17;13.30;99.90
9383;DHT22;4731;49.708;10.816;2023-06-10T03:55:45;13.40;99.90
9383;DHT22;4731;49.708;10.816;2023-06-10T03:58:12;13.50;99.90
9383;DHT22;4731;49.708;10.816;2023-06-10T04:00:40;13.50;99.90
9383;DHT22;4731;49.708;10.816;2023-06-10T04:03:07;13.60;99.90
9383;DHT22;4731;49.708;10.816;2023-06-10T04:05:39;13.70;99.90
9383;DHT22;4731;49.708;10.816;2023-06-10T04:08:06;13.70;99.90
9383;DHT22;4731;49.708;10.816;2023-06-10T04:10:33;13.80;99.90
9383;DHT22;4731;49.708;10.816;2023-06-10T04:13:01;13.80;99.90
9383;DHT22;4731;49.708;10.816;2023-06-10T04:15:28;13.90;99.90
9383;DHT22;4731;49.708;10.816;2023-06-10T04:17:58;14.00;99.90
9383;DHT22;4731;49.708;10.816;2023-06-10T04:20:25;14.10;99.90
9383;DHT22;4731;49.708;10.816;2023-06-10T04:22:51;14.20;99.90
9383;DHT22;4731;49.708;10.816;2023-06-10T04:25:18;14.30;99.90
9383;DHT22;4731;49.708;10.816;2023-06-10T04:27:45;14.40;99.90
9383;DHT22;4731;49.708;10.816;2023-06-10T04:30:14;14.50;99.90
9383;DHT22;4731;49.708;10.816;2023-06-10T04:32:41;14.60;99.90
9383;DHT22;4731;49.708;10.816;2023-06-10T04:35:11;14.80;99.90
9383;DHT22;4731;49.708;10.816;2023-06-10T04:37:38;14.90;99.90
9383;DHT22;4731;49.708;10.816;2023-06-10T04:40:06;15.50;99.90
9383;DHT22;4731;49.708;10.816;2023-06-10T04:42:33;15.20;99.90
9383;DHT22;4731;49.708;10.816;2023-06-10T04:45:00;15.30;99.90
9383;DHT22;4731;49.708;10.816;2023-06-10T04:47:28;15.50;99.90
9383;DHT22;4731;49.708;10.816;2023-06-10T04:49:58;15.60;99.90
9383;DHT22;4731;49.708;10.816;2023-06-10T04:52:25;15.70;99.90
9383;DHT22;4731;49.708;10.816;2023-06-10T04:54:52;15.80;99.90
9383;DHT22;4731;49.708;10.816;2023-06-10T04:57:18;16.00;99.90
9383;DHT22;4731;49.708;10.816;2023-06-10T04:59:45;16.10;99.90
9383;DHT22;4731;49.708;10.816;2023-06-10T05:02:12;16.30;99.90
9383;DHT22;4731;49.708;10.816;2023-06-10T05:04:40;16.40;99.90
9383;DHT22;4731;49.708;10.816;2023-06-10T05:07:07;16.60;99.90
9383;DHT22;4731;49.708;10.816;2023-06-10T05:09:33;16.70;99.90
9383;DHT22;4731;49.708;10.816;2023-06-10T05:12:00;16.80;99.90
9383;DHT22;4731;49.708;10.816;2023-06-10T05:14:27;16.90;99.90
9383;DHT22;4731;49.708;10.816;2023-06-10T05:16:54;17.10;99.90
9383;DHT22;4731;49.708;10.816;2023-06-10T05:19:21;17.20;99.90
9383;DHT22;4731;49.708;10.816;2023-06-10T05:21:49;17.30;99.90
9383;DHT22;4731;49.708;10.816;2023-06-10T05:24:16;17.40;99.90
9383;DHT22;4731;49.708;10.816;2023-06-10T05:26:42;19.80;99.90
9383;DHT22;4731;49.708;10.816;2023-06-10T05:29:09;17.80;99.90
9383;DHT22;4731;49.708;10.816;2023-06-10T05:31:36;17.90;99.90
9383;DHT22;4731;49.708;10.816;2023-06-10T05:34:03;18.00;99.90
9383;DHT22;4731;49.708;10.816;2023-06-10T05:36:30;18.10;99.90
9383;DHT22;4731;49.708;10.816;2023-06-10T05:38:59;18.30;99.90
9383;DHT22;4731;49.708;10.816;2023-06-10T05:41:25;18.40;99.90
9383;DHT22;4731;49.708;10.816;2023-06-10T05:43:52;18.40;99.90
9383;DHT22;4731;49.708;10.816;2023-06-10T05:46:19;18.50;99.90
9383;DHT22;4731;49.708;10.816;2023-06-10T05:48:46;18.60;99.90
9383;DHT22;4731;49.708;10.816;2023-06-10T05:51:13;18.60;99.90
9383;DHT22;4731;49.708;10.816;2023-06-10T05:53:39;20.70;99.90
9383;DHT22;4731;49.708;10.816;2023-06-10T05:56:07;19.50;99.90
9383;DHT22;4731;49.708;10.816;2023-06-10T05:58:34;19.10;99.90
9383;DHT22;4731;49.708;10.816;2023-06-10T06:01:01;19.20;99.90
9383;DHT22;4731;49.708;10.816;2023-06-10T06:03:28;19.30;99.90
9383;DHT22;4731;49.708;10.816;2023-06-10T06:05:54;19.50;99.90
9383;DHT22;4731;49.708;10.816;2023-06-10T06:08:21;19.70;99.90
9383;DHT22;4731;49.708;10.816;2023-06-10T06:10:48;19.80;99.90
9383;DHT22;4731;49.708;10.816;2023-06-10T06:13:16;19.80;99.90
9383;DHT22;4731;49.708;10.816;2023-06-10T06:15:43;20.10;99.90
9383;DHT22;4731;49.708;10.816;2023-06-10T06:18:10;20.20;99.90
9383;DHT22;4731;49.708;10.816;2023-06-10T06:20:36;21.00;99.90
9383;DHT22;4731;49.708;10.816;2023-06-10T06:23:03;20.50;99.90
9383;DHT22;4731;49.708;10.816;2023-06-10T06:25:30;21.10;99.90
9383;DHT22;4731;49.708;10.816;2023-06-10T06:27:56;20.80;99.90
9383;DHT22;4731;49.708;10.816;2023-06-10T06:30:24;20.80;99.90
9383;DHT22;4731;49.708;10.816;2023-06-10T06:32:51;21.00;99.90
9383;DHT22;4731;49.708;10.816;2023-06-10T06:35:18;21.20;99.90
9383;DHT22;4731;49.708;10.816;2023-06-10T06:37:45;21.30;99.90
9383;DHT22;4731;49.708;10.816;2023-06-10T06:40:12;21.50;99.90
9383;DHT22;4731;49.708;10.816;2023-06-10T06:42:39;21.70;99.90
9383;DHT22;4731;49.708;10.816;2023-06-10T06:45:07;21.80;99.90
9383;DHT22;4731;49.708;10.816;2023-06-10T06:47:35;21.90;99.90
9383;DHT22;4731;49.708;10.816;2023-06-10T06:50:02;22.00;99.90
9383;DHT22;4731;49.708;10.816;2023-06-10T06:52:28;22.20;99.90
9383;DHT22;4731;49.708;10.816;2023-06-10T06:54:55;22.40;99.90
9383;DHT22;4731;49.708;10.816;2023-06-10T06:57:22;22.50;99.90
9383;DHT22;4731;49.708;10.816;2023-06-10T06:59:48;22.60;99.90
9383;DHT22;4731;49.708;10.816;2023-06-10T07:02:15;22.80;99.90
9383;DHT22;4731;49.708;10.816;2023-06-10T07:04:43;23.00;99.90
9383;DHT22;4731;49.708;10.816;2023-06-10T07:07:11;23.20;99.90
9383;DHT22;4731;49.708;10.816;2023-06-10T07:09:38;23.30;99.90
9383;DHT22;4731;49.708;10.816;2023-06-10T07:12:05;23.30;99.90
9383;DHT22;4731;49.708;10.816;2023-06-10T07:14:32;23.40;99.90
9383;DHT22;4731;49.708;10.816;2023-06-10T07:16:59;23.60;99.90
9383;DHT22;4731;49.708;10.816;2023-06-10T07:19:26;23.70;99.90
9383;DHT22;4731;49.708;10.816;2023-06-10T07:21:54;23.90;99.90
9383;DHT22;4731;49.708;10.816;2023-06-10T07:24:21;24.00;99.90
9383;DHT22;4731;49.708;10.816;2023-06-10T07:26:47;24.10;99.90
9383;DHT22;4731;49.708;10.816;2023-06-10T07:29:14;24.30;99.90
9383;DHT22;4731;49.708;10.816;2023-06-10T07:31:41;24.40;99.90
9383;DHT22;4731;49.708;10.816;2023-06-10T07:34:08;24.30;99.90
9383;DHT22;4731;49.708;10.816;2023-06-10T07:36:34;24.40;99.90
9383;DHT22;4731;49.708;10.816;2023-06-10T07:39:04;24.40;99.90
9383;DHT22;4731;49.708;10.816;2023-06-10T07:41:31;24.10;99.90
9383;DHT22;4731;49.708;10.816;2023-06-10T07:43:58;23.90;99.90
9383;DHT22;4731;49.708;10.816;2023-06-10T07:46:24;24.00;99.90
9383;DHT22;4731;49.708;10.816;2023-06-10T07:48:53;24.10;99.90
9383;DHT22;4731;49.708;10.816;2023-06-10T07:51:20;24.00;99.90
9383;DHT22;4731;49.708;10.816;2023-06-10T07:53:47;24.00;99.90
9383;DHT22;4731;49.708;10.816;2023-06-10T07:56:15;24.30;99.90
9383;DHT22;4731;49.708;10.816;2023-06-10T07:58:42;24.70;99.90
9383;DHT22;4731;49.708;10.816;2023-06-10T08:01:09;24.90;99.90
9383;DHT22;4731;49.708;10.816;2023-06-10T08:03:35;25.20;99.90
9383;DHT22;4731;49.708;10.816;2023-06-10T08:06:02;25.30;99.90
9383;DHT22;4731;49.708;10.816;2023-06-10T08:08:29;25.40;99.90
9383;DHT22;4731;49.708;10.816;2023-06-10T08:10:55;25.50;99.90
9383;DHT22;4731;49.708;10.816;2023-06-10T08:13:24;25.60;99.90
9383;DHT22;4731;49.708;10.816;2023-06-10T08:15:50;25.60;99.90
9383;DHT22;4731;49.708;10.816;2023-06-10T08:18:19;25.60;99.90
9383;DHT22;4731;49.708;10.816;2023-06-10T08:20:46;25.80;99.90
9383;DHT22;4731;49.708;10.816;2023-06-10T08:23:12;26.00;99.90
9383;DHT22;4731;49.708;10.816;2023-06-10T08:25:40;26.20;99.90
9383;DHT22;4731;49.708;10.816;2023-06-10T08:28:07;26.50;99.90
9383;DHT22;4731;49.708;10.816;2023-06-10T08:30:35;26.70;99.90
9383;DHT22;4731;49.708;10.816;2023-06-10T08:33:01;26.80;99.90
9383;DHT22;4731;49.708;10.816;2023-06-10T08:35:28;26.50;99.90
9383;DHT22;4731;49.708;10.816;2023-06-10T08:37:55;26.80;99.90
9383;DHT22;4731;49.708;10.816;2023-06-10T08:40:22;27.10;99.90
9383;DHT22;4731;49.708;10.816;2023-06-10T08:42:56;27.30;99.90
9383;DHT22;4731;49.708;10.816;2023-06-10T08:45:28;27.50;99.90
9383;DHT22;4731;49.708;10.816;2023-06-10T08:47:59;27.60;99.90
9383;DHT22;4731;49.708;10.816;2023-06-10T08:50:28;27.50;99.90
9383;DHT22;4731;49.708;10.816;2023-06-10T08:52:58;27.60;99.90
9383;DHT22;4731;49.708;10.816;2023-06-10T08:55:30;27.70;99.90
9383;DHT22;4731;49.708;10.816;2023-06-10T08:57:59;27.40;99.90
9383;DHT22;4731;49.708;10.816;2023-06-10T09:00:26;27.40;99.90
9383;DHT22;4731;49.708;10.816;2023-06-10T09:02:54;27.30;99.90
9383;DHT22;4731;49.708;10.816;2023-06-10T09:05:23;27.40;99.90
9383;DHT22;4731;49.708;10.816;2023-06-10T09:07:52;27.50;99.90
9383;DHT22;4731;49.708;10.816;2023-06-10T09:10:19;27.80;99.90
9383;DHT22;4731;49.708;10.816;2023-06-10T09:12:46;27.80;99.90
9383;DHT22;4731;49.708;10.816;2023-06-10T09:15:13;27.90;99.90
9383;DHT22;4731;49.708;10.816;2023-06-10T09:17:40;28.20;99.90
9383;DHT22;4731;49.708;10.816;2023-06-10T09:20:08;28.50;99.90
9383;DHT22;4731;49.708;10.816;2023-06-10T09:22:36;28.60;99.90
9383;DHT22;4731;49.708;10.816;2023-06-10T09:25:03;28.20;99.90
9383;DHT22;4731;49.708;10.816;2023-06-10T09:27:31;28.10;99.90
9383;DHT22;4731;49.708;10.816;2023-06-10T09:29:58;28.10;99.90
9383;DHT22;4731;49.708;10.816;2023-06-10T09:32:25;28.20;99.90
9383;DHT22;4731;49.708;10.816;2023-06-10T09:34:53;28.40;99.90
9383;DHT22;4731;49.708;10.816;2023-06-10T09:37:20;27.80;99.90
9383;DHT22;4731;49.708;10.816;2023-06-10T09:40:02;27.20;99.90
9383;DHT22;4731;49.708;10.816;2023-06-10T09:42:33;27.50;99.90
9383;DHT22;4731;49.708;10.816;2023-06-10T09:45:00;27.70;99.90
9383;DHT22;4731;49.708;10.816;2023-06-10T09:47:27;28.00;99.90
9383;DHT22;4731;49.708;10.816;2023-06-10T09:49:54;27.00;99.90
9383;DHT22;4731;49.708;10.816;2023-06-10T09:52:22;28.40;99.90
9383;DHT22;4731;49.708;10.816;2023-06-10T09:54:50;28.40;99.90
9383;DHT22;4731;49.708;10.816;2023-06-10T09:57:19;28.60;99.90
9383;DHT22;4731;49.708;10.816;2023-06-10T09:59:47;29.40;99.90
9383;DHT22;4731;49.708;10.816;2023-06-10T10:02:14;29.30;99.90
9383;DHT22;4731;49.708;10.816;2023-06-10T10:04:42;29.00;99.90
9383;DHT22;4731;49.708;10.816;2023-06-10T10:07:09;29.10;99.90
9383;DHT22;4731;49.708;10.816;2023-06-10T10:09:36;29.00;99.90
9383;DHT22;4731;49.708;10.816;2023-06-10T10:12:07;29.00;99.90
9383;DHT22;4731;49.708;10.816;2023-06-10T10:14:38;29.40;99.90
9383;DHT22;4731;49.708;10.816;2023-06-10T10:17:08;29.50;99.90
9383;DHT22;4731;49.708;10.816;2023-06-10T10:19:40;29.80;99.90
9383;DHT22;4731;49.708;10.816;2023-06-10T10:22:15;29.80;99.90
9383;DHT22;4731;49.708;10.816;2023-06-10T10:24:49;29.50;99.90
9383;DHT22;4731;49.708;10.816;2023-06-10T10:27:18;28.70;99.90
9383;DHT22;4731;49.708;10.816;2023-06-10T10:29:52;28.70;99.90
9383;DHT22;4731;49.708;10.816;2023-06-10T10:32:22;28.80;99.90
9383;DHT22;4731;49.708;10.816;2023-06-10T10:34:57;28.80;99.90
9383;DHT22;4731;49.708;10.816;2023-06-10T10:37:28;28.10;99.90
9383;DHT22;4731;49.708;10.816;2023-06-10T10:39:55;28.00;99.90
9383;DHT22;4731;49.708;10.816;2023-06-10T10:42:24;28.00;99.90
9383;DHT22;4731;49.708;10.816;2023-06-10T10:44:52;28.30;99.90
9383;DHT22;4731;49.708;10.816;2023-06-10T10:47:21;28.70;99.90
9383;DHT22;4731;49.708;10.816;2023-06-10T10:49:51;28.50;99.90
9383;DHT22;4731;49.708;10.816;2023-06-10T10:52:18;28.30;99.90
9383;DHT22;4731;49.708;10.816;2023-06-10T10:54:46;28.60;99.90
9383;DHT22;4731;49.708;10.816;2023-06-10T10:57:14;29.00;99.90
9383;DHT22;4731;49.708;10.816;2023-06-10T10:59:56;28.90;99.90
9383;DHT22;4731;49.708;10.816;2023-06-10T11:02:40;28.50;99.90
9383;DHT22;4731;49.708;10.816;2023-06-10T11:05:10;27.50;99.90
9383;DHT22;4731;49.708;10.816;2023-06-10T11:07:37;26.90;99.90
9383;DHT22;4731;49.708;10.816;2023-06-10T11:10:07;27.30;99.90
9383;DHT22;4731;49.708;10.816;2023-06-10T11:12:51;27.40;99.90
9383;DHT22;4731;49.708;10.816;2023-06-10T11:15:23;27.40;99.90
9383;DHT22;4731;49.708;10.816;2023-06-10T11:18:10;27.50;99.90
9383;DHT22;4731;49.708;10.816;2023-06-10T11:20:52;27.70;99.90
9383;DHT22;4731;49.708;10.816;2023-06-10T11:23:34;27.70;99.90
9383;DHT22;4731;49.708;10.816;2023-06-10T11:26:31;28.10;99.90
9383;DHT22;4731;49.708;10.816;2023-06-10T11:29:07;28.30;99.90
9383;DHT22;4731;49.708;10.816;2023-06-10T11:31:44;28.00;99.90
9383;DHT22;4731;49.708;10.816;2023-06-10T11:34:12;28.20;99.90
9383;DHT22;4731;49.708;10.816;2023-06-10T11:36:40;28.20;99.90
9383;DHT22;4731;49.708;10.816;2023-06-10T11:39:09;27.90;99.90
9383;DHT22;4731;49.708;10.816;2023-06-10T11:41:37;27.90;99.90
9383;DHT22;4731;49.708;10.816;2023-06-10T11:44:08;27.90;99.90
9383;DHT22;4731;49.708;10.816;2023-06-10T11:46:35;27.90;99.90
9383;DHT22;4731;49.708;10.816;2023-06-10T11:49:03;28.20;99.90
9383;DHT22;4731;49.708;10.816;2023-06-10T11:51:33;28.50;99.90
9383;DHT22;4731;49.708;10.816;2023-06-10T11:54:00;28.40;99.90
9383;DHT22;4731;49.708;10.816;2023-06-10T11:56:29;28.10;99.90
9383;DHT22;4731;49.708;10.816;2023-06-10T11:58:58;28.20;99.90
9383;DHT22;4731;49.708;10.816;2023-06-10T12:01:29;28.70;99.90
9383;DHT22;4731;49.708;10.816;2023-06-10T12:03:58;28.10;99.90
9383;DHT22;4731;49.708;10.816;2023-06-10T12:06:26;27.70;99.90
9383;DHT22;4731;49.708;10.816;2023-06-10T12:08:53;27.60;99.90
9383;DHT22;4731;49.708;10.816;2023-06-10T12:11:21;28.30;99.90
9383;DHT22;4731;49.708;10.816;2023-06-10T12:13:49;27.70;99.90
9383;DHT22;4731;49.708;10.816;2023-06-10T12:16:16;27.70;99.90
9383;DHT22;4731;49.708;10.816;2023-06-10T12:18:45;27.50;99.90
9383;DHT22;4731;49.708;10.816;2023-06-10T12:21:17;27.90;99.90
9383;DHT22;4731;49.708;10.816;2023-06-10T12:24:09;27.90;99.90
9383;DHT22;4731;49.708;10.816;2023-06-10T12:26:41;28.30;99.90
9383;DHT22;4731;49.708;10.816;2023-06-10T12:29:20;28.40;99.90
9383;DHT22;4731;49.708;10.816;2023-06-10T12:31:59;28.70;99.90
9383;DHT22;4731;49.708;10.816;2023-06-10T12:34:30;29.50;99.90
9383;DHT22;4731;49.708;10.816;2023-06-10T12:36:57;30.00;99.90
9383;DHT22;4731;49.708;10.816;2023-06-10T12:39:26;29.80;99.90
9383;DHT22;4731;49.708;10.816;2023-06-10T12:41:53;28.90;99.90
9383;DHT22;4731;49.708;10.816;2023-06-10T12:44:41;28.40;99.90
9383;DHT22;4731;49.708;10.816;2023-06-10T12:47:11;28.30;99.90
9383;DHT22;4731;49.708;10.816;2023-06-10T12:49:38;28.70;99.90
9383;DHT22;4731;49.708;10.816;2023-06-10T12:52:06;29.00;99.90
9383;DHT22;4731;49.708;10.816;2023-06-10T12:54:35;29.20;99.90
9383;DHT22;4731;49.708;10.816;2023-06-10T12:57:02;29.00;99.90
9383;DHT22;4731;49.708;10.816;2023-06-10T12:59:29;29.00;99.90
9383;DHT22;4731;49.708;10.816;2023-06-10T13:01:57;28.90;99.90
9383;DHT22;4731;49.708;10.816;2023-06-10T13:04:24;28.90;99.90
9383;DHT22;4731;49.708;10.816;2023-06-10T13:06:52;28.90;99.90
9383;DHT22;4731;49.708;10.816;2023-06-10T13:09:19;28.60;99.90
9383;DHT22;4731;49.708;10.816;2023-06-10T13:11:47;28.60;99.90
9383;DHT22;4731;49.708;10.816;2023-06-10T13:14:14;28.30;99.90
9383;DHT22;4731;49.708;10.816;2023-06-10T13:16:40;27.80;99.90
9383;DHT22;4731;49.708;10.816;2023-06-10T13:19:10;27.90;99.90
9383;DHT22;4731;49.708;10.816;2023-06-10T13:21:37;28.20;99.90
9383;DHT22;4731;49.708;10.816;2023-06-10T13:24:04;28.80;99.90
9383;DHT22;4731;49.708;10.816;2023-06-10T13:26:31;29.50;99.90
9383;DHT22;4731;49.708;10.816;2023-06-10T13:28:59;29.80;99.90
9383;DHT22;4731;49.708;10.816;2023-06-10T13:31:26;29.60;99.90
9383;DHT22;4731;49.708;10.816;2023-06-10T13:33:52;29.20;99.90
9383;DHT22;4731;49.708;10.816;2023-06-10T13:36:19;28.70;99.90
9383;DHT22;4731;49.708;10.816;2023-06-10T13:38:46;28.40;99.90
9383;DHT22;4731;49.708;10.816;2023-06-10T13:41:13;28.50;99.90
9383;DHT22;4731;49.708;10.816;2023-06-10T13:43:40;28.20;99.90
9383;DHT22;4731;49.708;10.816;2023-06-10T13:46:08;28.40;99.90
9383;DHT22;4731;49.708;10.816;2023-06-10T13:48:35;28.90;99.90
9383;DHT22;4731;49.708;10.816;2023-06-10T13:51:01;29.20;99.90
9383;DHT22;4731;49.708;10.816;2023-06-10T13:53:29;29.50;99.90
9383;DHT22;4731;49.708;10.816;2023-06-10T13:55:55;29.50;99.90
9383;DHT22;4731;49.708;10.816;2023-06-10T13:58:22;29.80;99.90
9383;DHT22;4731;49.708;10.816;2023-06-10T14:00:49;29.40;99.90
9383;DHT22;4731;49.708;10.816;2023-06-10T14:03:18;28.70;99.90
9383;DHT22;4731;49.708;10.816;2023-06-10T14:05:48;28.20;99.90
9383;DHT22;4731;49.708;10.816;2023-06-10T14:08:16;28.50;99.90
9383;DHT22;4731;49.708;10.816;2023-06-10T14:10:43;28.60;99.90
9383;DHT22;4731;49.708;10.816;2023-06-10T14:13:10;28.10;99.90
9383;DHT22;4731;49.708;10.816;2023-06-10T14:15:37;28.10;99.90
9383;DHT22;4731;49.708;10.816;2023-06-10T14:18:05;28.00;99.90
9383;DHT22;4731;49.708;10.816;2023-06-10T14:20:33;27.80;99.90
9383;DHT22;4731;49.708;10.816;2023-06-10T14:23:02;27.80;99.90
9383;DHT22;4731;49.708;10.816;2023-06-10T14:25:32;27.60;99.90
9383;DHT22;4731;49.708;10.816;2023-06-10T14:27:58;27.70;99.90
9383;DHT22;4731;49.708;10.816;2023-06-10T14:30:27;27.90;99.90
9383;DHT22;4731;49.708;10.816;2023-06-10T14:32:55;27.90;99.90
9383;DHT22;4731;49.708;10.816;2023-06-10T14:35:22;27.90;99.90
9383;DHT22;4731;49.708;10.816;2023-06-10T14:37:50;27.80;99.90
9383;DHT22;4731;49.708;10.816;2023-06-10T14:40:17;27.80;99.90
9383;DHT22;4731;49.708;10.816;2023-06-10T14:42:43;27.80;99.90
9383;DHT22;4731;49.708;10.816;2023-06-10T14:45:10;27.70;99.90
9383;DHT22;4731;49.708;10.816;2023-06-10T14:47:37;27.40;99.90
9383;DHT22;4731;49.708;10.816;2023-06-10T14:50:04;26.90;99.90
9383;DHT22;4731;49.708;10.816;2023-06-10T14:52:31;26.60;99.90
9383;DHT22;4731;49.708;10.816;2023-06-10T14:55:00;26.20;99.90
9383;DHT22;4731;49.708;10.816;2023-06-10T14:57:27;26.00;99.90
9383;DHT22;4731;49.708;10.816;2023-06-10T14:59:54;25.60;99.90
9383;DHT22;4731;49.708;10.816;2023-06-10T15:02:21;25.30;99.90
9383;DHT22;4731;49.708;10.816;2023-06-10T15:04:48;24.90;99.90
9383;DHT22;4731;49.708;10.816;2023-06-10T15:07:16;24.80;99.90
9383;DHT22;4731;49.708;10.816;2023-06-10T15:09:43;24.70;99.90
9383;DHT22;4731;49.708;10.816;2023-06-10T15:12:11;24.50;99.90
9383;DHT22;4731;49.708;10.816;2023-06-10T15:14:38;24.50;99.90
9383;DHT22;4731;49.708;10.816;2023-06-10T15:17:05;24.60;99.90
9383;DHT22;4731;49.708;10.816;2023-06-10T15:19:31;24.50;99.90
9383;DHT22;4731;49.708;10.816;2023-06-10T15:21:59;24.60;99.90
9383;DHT22;4731;49.708;10.816;2023-06-10T15:24:26;24.60;99.90
9383;DHT22;4731;49.708;10.816;2023-06-10T15:26:53;24.60;99.90
9383;DHT22;4731;49.708;10.816;2023-06-10T15:29:21;24.50;99.90
9383;DHT22;4731;49.708;10.816;2023-06-10T15:31:47;24.60;99.90
9383;DHT22;4731;49.708;10.816;2023-06-10T15:34:14;24.40;99.90
9383;DHT22;4731;49.708;10.816;2023-06-10T15:36:41;24.60;99.90
9383;DHT22;4731;49.708;10.816;2023-06-10T15:39:09;24.80;99.90
9383;DHT22;4731;49.708;10.816;2023-06-10T15:41:36;25.00;99.90
9383;DHT22;4731;49.708;10.816;2023-06-10T15:44:03;25.30;99.90
9383;DHT22;4731;49.708;10.816;2023-06-10T15:46:31;25.50;99.90
9383;DHT22;4731;49.708;10.816;2023-06-10T15:49:00;25.50;99.90
9383;DHT22;4731;49.708;10.816;2023-06-10T15:51:27;25.60;99.90